Time;durP1;ratioP1;P1;durP2;ratioP2;P2;SDS_P1;SDS_P2;PMS_P1;PMS_P2;Temp;Humidity;BMP_temperature;BMP_pressure;BME280_temperature;BME280_humidity;BME280_pressure;Samples;Min_cycle;Max_cycle;Signal;HPM_P1;HPM_P2
2023/03/25 00:01:48;;;;;;;3.47;1.40;;;;;;;9.55;100.00;96338.75;5072830;28;20214;-56
2023/03/25 00:04:16;;;;;;;1.30;1.20;;;;;;;9.63;100.00;96354.72;5072638;28;20221;-56
2023/03/25 00:06:44;;;;;;;2.70;1.77;;;;;;;9.61;100.00;96369.00;5070975;28;20194;-56
2023/03/25 00:09:11;;;;;;;1.73;1.50;;;;;;;9.60;100.00;96370.81;5072469;28;20218;-56
2023/03/25 00:11:39;;;;;;;3.80;1.60;;;;;;;9.65;100.00;96384.44;5072654;28;20195;-56
2023/03/25 00:14:11;;;;;;;1.77;1.20;;;;;;;9.77;100.00;96396.50;5070959;28;20198;-57
2023/03/25 00:16:38;;;;;;;1.93;1.13;;;;;;;9.63;100.00;96389.03;5072256;28;20225;-56
2023/03/25 00:19:05;;;;;;;3.23;1.50;;;;;;;9.53;100.00;96414.59;5072072;28;20641;-55
2023/03/25 00:21:33;;;;;;;2.53;1.40;;;;;;;9.48;100.00;96416.84;5072205;28;20218;-55
2023/03/25 00:24:02;;;;;;;1.03;1.03;;;;;;;9.36;100.00;96407.41;5072462;28;20226;-55
2023/03/25 00:26:31;;;;;;;1.47;0.90;;;;;;;9.33;100.00;96403.25;5072195;28;20198;-56
2023/03/25 00:28:58;;;;;;;1.07;0.97;;;;;;;9.05;100.00;96414.66;5072333;28;20306;-55
2023/03/25 00:31:26;;;;;;;0.60;0.50;;;;;;;9.10;100.00;96416.88;5070471;28;20267;-56
2023/03/25 00:33:52;;;;;;;1.37;0.60;;;;;;;8.99;100.00;96413.44;5072047;28;20198;-56
2023/03/25 00:36:19;;;;;;;1.87;0.70;;;;;;;8.80;100.00;96363.31;5072115;28;20207;-55
2023/03/25 00:38:48;;;;;;;2.10;0.93;;;;;;;8.59;100.00;96352.06;5071923;28;20650;-56
2023/03/25 00:41:21;;;;;;;1.27;1.13;;;;;;;8.61;100.00;96355.38;5071503;28;20198;-56
2023/03/25 00:43:48;;;;;;;1.33;0.80;;;;;;;8.47;100.00;96361.06;5072068;28;20225;-56
2023/03/25 00:46:16;;;;;;;2.40;0.60;;;;;;;8.42;100.00;96355.38;5071624;28;20245;-56
2023/03/25 00:48:43;;;;;;;0.70;0.50;;;;;;;8.35;100.00;96359.53;5070141;28;20295;-55
2023/03/25 00:51:13;;;;;;;0.37;0.37;;;;;;;8.36;100.00;96369.94;5070299;28;20233;-55
2023/03/25 00:53:40;;;;;;;1.23;0.60;;;;;;;8.24;100.00;96360.47;5071753;28;20209;-56
2023/03/25 00:56:07;;;;;;;2.47;0.80;;;;;;;8.23;100.00;96361.41;5071552;28;20222;-56
2023/03/25 00:58:35;;;;;;;1.47;0.70;;;;;;;8.25;100.00;96354.22;5071903;28;20209;-56
2023/03/25 01:01:09;;;;;;;2.90;0.70;;;;;;;8.24;100.00;96351.72;5070655;28;20645;-56
2023/03/25 01:03:37;;;;;;;1.90;0.70;;;;;;;8.35;100.00;96338.47;5071422;28;20208;-55
2023/03/25 01:06:04;;;;;;;0.50;0.40;;;;;;;8.38;100.00;96338.19;5077640;28;20198;-56
2023/03/25 01:08:32;;;;;;;1.07;0.50;;;;;;;8.33;100.00;96322.78;5083508;28;20207;-56
2023/03/25 01:10:58;;;;;;;2.90;0.73;;;;;;;8.30;100.00;96330.97;5062582;28;20227;-56
2023/03/25 01:13:25;;;;;;;1.70;0.60;;;;;;;8.34;100.00;96334.16;5050993;28;20516;-56
2023/03/25 01:15:54;;;;;;;0.93;0.50;;;;;;;8.31;100.00;96316.00;5051643;28;20206;-56
2023/03/25 01:18:21;;;;;;;1.30;0.67;;;;;;;8.23;100.00;96331.59;5051071;28;20531;-56
2023/03/25 01:20:47;;;;;;;0.53;0.50;;;;;;;8.19;100.00;96330.22;5050829;28;20218;-56
2023/03/25 01:23:15;;;;;;;1.93;0.67;;;;;;;8.14;100.00;96327.16;5051478;28;20344;-55
2023/03/25 01:25:43;;;;;;;0.50;0.50;;;;;;;8.08;100.00;96327.72;5051404;28;20203;-56
2023/03/25 01:28:12;;;;;;;0.83;0.63;;;;;;;8.14;100.00;96330.63;5051045;28;20199;-55
2023/03/25 01:30:38;;;;;;;2.13;0.70;;;;;;;8.19;100.00;96332.84;5050927;28;20868;-56
2023/03/25 01:33:06;;;;;;;0.70;0.70;;;;;;;8.23;100.00;96336.88;5051183;28;20208;-56
2023/03/25 01:35:32;;;;;;;1.10;0.63;;;;;;;8.17;100.00;96335.63;5050229;28;20222;-56
2023/03/25 01:37:59;;;;;;;0.50;0.50;;;;;;;8.16;100.00;96339.22;5050593;28;20211;-55
2023/03/25 01:40:26;;;;;;;0.90;0.50;;;;;;;8.24;100.00;96343.81;5052920;28;20215;-56
2023/03/25 01:42:52;;;;;;;1.80;0.87;;;;;;;8.21;100.00;96349.34;5055826;28;20222;-56
2023/03/25 01:45:32;;;;;;;0.70;0.50;;;;;;;8.18;100.00;96339.09;5054328;28;20203;-56
2023/03/25 01:48:05;;;;;;;1.00;0.90;;;;;;;8.25;100.00;96341.06;5052506;28;20209;-56
2023/03/25 01:50:34;;;;;;;2.07;0.80;;;;;;;8.24;100.00;96317.47;5050754;28;20224;-56
2023/03/25 01:53:04;;;;;;;0.90;0.60;;;;;;;8.32;100.00;96330.84;5051311;28;20206;-56
2023/03/25 01:55:35;;;;;;;1.33;0.70;;;;;;;8.35;100.00;96327.91;5050852;28;20264;-55
2023/03/25 01:58:06;;;;;;;2.50;0.90;;;;;;;8.39;100.00;96334.59;5050790;28;20214;-55
2023/03/25 02:00:34;;;;;;;1.40;0.83;;;;;;;8.33;100.00;96337.75;5050194;28;20225;-56
2023/03/25 02:03:01;;;;;;;2.33;0.80;;;;;;;8.38;100.00;96340.81;5051081;28;20211;-55
2023/03/25 02:05:36;;;;;;;1.77;0.80;;;;;;;8.33;100.00;96349.13;5050157;28;20218;-55
2023/03/25 02:08:05;;;;;;;2.73;0.63;;;;;;;8.38;100.00;96356.63;5050523;28;20201;-56
2023/03/25 02:10:36;;;;;;;1.70;0.60;;;;;;;8.41;100.00;96373.00;5050859;28;20314;-55
2023/03/25 02:13:03;;;;;;;1.93;0.93;;;;;;;8.39;100.00;96332.78;5050687;28;20195;-55
2023/03/25 02:15:37;;;;;;;2.23;0.50;;;;;;;8.27;100.00;96328.56;5050825;28;20498;-56
2023/03/25 02:18:15;;;;;;;1.60;0.50;;;;;;;8.38;100.00;96335.56;5050507;28;20195;-56
2023/03/25 02:21:17;;;;;;;0.83;0.57;;;;;;;8.32;100.00;96352.75;5050718;28;20191;-56
2023/03/25 02:24:35;;;;;;;1.37;0.80;;;;;;;8.22;100.00;96333.41;5050556;28;20207;-55
2023/03/25 02:27:26;;;;;;;1.40;0.67;;;;;;;8.14;100.00;96332.44;5030087;28;20230;-56
2023/03/25 02:30:15;;;;;;;1.83;0.57;;;;;;;8.15;100.00;96319.09;5050807;28;20203;-55
2023/03/25 02:33:21;;;;;;;2.13;0.70;;;;;;;8.13;100.00;96302.63;5050816;28;20544;-55
2023/03/25 02:36:08;;;;;;;1.70;0.80;;;;;;;8.16;100.00;96298.88;5050538;28;20278;-56
2023/03/25 02:38:39;;;;;;;2.13;1.00;;;;;;;8.20;100.00;96295.00;5050897;28;20211;-55
2023/03/25 02:41:11;;;;;;;2.70;1.00;;;;;;;8.20;100.00;96300.28;5050221;28;20647;-55
2023/03/25 02:43:41;;;;;;;1.03;0.63;;;;;;;8.25;100.00;96303.34;5050888;28;20211;-56
2023/03/25 02:46:10;;;;;;;1.17;0.70;;;;;;;8.24;100.00;96291.13;5049886;28;20606;-56
2023/03/25 02:48:43;;;;;;;2.87;0.97;;;;;;;8.29;100.00;96295.03;5049006;28;20210;-55
2023/03/25 02:51:12;;;;;;;1.83;0.80;;;;;;;8.40;100.00;96297.53;5050130;28;20211;-55
2023/03/25 02:53:43;;;;;;;1.70;0.70;;;;;;;8.40;100.00;96317.78;5049934;28;20208;-56
2023/03/25 02:56:15;;;;;;;2.00;0.63;;;;;;;8.41;100.00;96317.66;5053195;28;20211;-56
2023/03/25 02:58:44;;;;;;;1.67;1.00;;;;;;;8.47;100.00;96324.16;5054255;28;20611;-56
2023/03/25 03:01:13;;;;;;;1.80;0.80;;;;;;;8.48;100.00;96353.03;5072700;28;20203;-56
2023/03/25 03:03:40;;;;;;;1.57;0.70;;;;;;;8.45;100.00;96360.38;5077132;28;20194;-56
2023/03/25 03:06:08;;;;;;;0.70;0.70;;;;;;;8.42;100.00;96358.03;5054305;28;20218;-55
2023/03/25 03:09:07;;;;;;;0.80;0.80;;;;;;;8.38;100.00;96404.06;5052823;28;20214;-56
2023/03/25 03:11:42;;;;;;;1.23;0.90;;;;;;;8.39;100.00;96454.00;5074526;28;20215;-59
2023/03/25 03:14:31;;;;;;;1.27;0.50;;;;;;;8.15;100.00;96445.53;5068277;28;20271;-56
2023/03/25 03:17:03;;;;;;;4.07;0.63;;;;;;;8.09;100.00;96451.34;5069406;28;20209;-57
2023/03/25 03:19:37;;;;;;;1.27;0.37;;;;;;;7.90;100.00;96452.06;5078916;28;20199;-58
2023/03/25 03:22:14;;;;;;;0.60;0.40;;;;;;;7.65;100.00;96452.50;5074421;28;20207;-56
2023/03/25 03:24:44;;;;;;;1.10;0.30;;;;;;;7.53;100.00;96474.59;5053927;28;20191;-56
2023/03/25 03:27:15;;;;;;;0.53;0.20;;;;;;;7.11;100.00;96472.91;5053991;28;20199;-56
2023/03/25 03:29:45;;;;;;;1.53;0.10;;;;;;;7.01;100.00;96467.56;5054219;28;20203;-56
2023/03/25 03:32:14;;;;;;;1.17;0.20;;;;;;;6.91;100.00;96451.69;5053261;28;20231;-56
2023/03/25 03:34:45;;;;;;;0.30;0.30;;;;;;;6.78;100.00;96443.13;5053372;28;20199;-56
2023/03/25 03:37:16;;;;;;;0.73;0.40;;;;;;;6.69;100.00;96446.53;5052876;28;20192;-56
2023/03/25 03:39:46;;;;;;;0.40;0.40;;;;;;;6.60;100.00;96456.91;5053360;28;20221;-56
2023/03/25 03:42:18;;;;;;;0.20;0.20;;;;;;;6.56;100.00;96451.09;5053299;28;20222;-56
2023/03/25 03:44:48;;;;;;;0.50;0.20;;;;;;;6.57;100.00;96452.75;5053063;28;20701;-56
2023/03/25 03:47:17;;;;;;;1.13;0.33;;;;;;;6.34;100.00;96466.91;5052805;28;20227;-56
2023/03/25 03:49:50;;;;;;;0.20;0.20;;;;;;;6.20;100.00;96457.47;5053146;28;20199;-56
2023/03/25 03:52:20;;;;;;;0.10;0.10;;;;;;;6.11;100.00;96454.72;5053541;28;20211;-55
2023/03/25 03:54:49;;;;;;;0.10;0.10;;;;;;;5.96;100.00;96457.59;5066656;28;20270;-55
2023/03/25 03:57:23;;;;;;;0.20;0.10;;;;;;;6.06;100.00;96436.72;5077455;28;20207;-56
2023/03/25 03:59:56;;;;;;;0.93;0.27;;;;;;;6.08;100.00;96454.97;5078855;28;20250;-56
2023/03/25 04:02:37;;;;;;;0.47;0.30;;;;;;;6.07;100.00;96442.81;5074864;28;20206;-57
2023/03/25 04:05:04;;;;;;;0.10;0.10;;;;;;;6.09;100.00;96425.16;5075107;28;20203;-56
2023/03/25 04:07:37;;;;;;;0.30;0.30;;;;;;;6.11;100.00;96413.56;5074765;28;20210;-56
2023/03/25 04:10:13;;;;;;;0.10;0.10;;;;;;;6.18;100.00;96419.16;5071643;28;20199;-55
2023/03/25 04:12:43;;;;;;;0.87;0.60;;;;;;;6.20;100.00;96433.03;5062928;28;20700;-56
2023/03/25 04:15:10;;;;;;;0.77;0.30;;;;;;;6.24;100.00;96427.38;5067345;28;20198;-55
2023/03/25 04:17:38;;;;;;;0.30;0.30;;;;;;;6.28;100.00;96417.47;5058990;28;20210;-56
2023/03/25 04:20:07;;;;;;;1.03;0.27;;;;;;;6.41;100.00;96395.34;5059293;28;20203;-56
2023/03/25 04:22:36;;;;;;;0.30;0.20;;;;;;;6.54;100.00;96400.47;5058067;28;20290;-55
2023/03/25 04:25:05;;;;;;;0.20;0.20;;;;;;;6.55;100.00;96402.16;5055527;28;20294;-56
2023/03/25 04:27:36;;;;;;;0.87;0.37;;;;;;;6.31;100.00;96404.09;5053627;28;20230;-56
2023/03/25 04:30:05;;;;;;;0.20;0.20;;;;;;;6.40;100.00;96409.47;5053346;28;20230;-56
2023/03/25 04:32:32;;;;;;;0.70;0.40;;;;;;;6.41;100.00;96420.81;5053094;28;20223;-56
2023/03/25 04:34:58;;;;;;;0.30;0.30;;;;;;;6.42;100.00;96412.78;5052817;28;20589;-56
2023/03/25 04:37:27;;;;;;;0.20;0.20;;;;;;;6.47;100.00;96399.28;5052130;28;20261;-56
2023/03/25 04:39:58;;;;;;;0.20;0.20;;;;;;;6.44;100.00;96400.38;5052458;28;20207;-56
2023/03/25 04:42:31;;;;;;;0.43;0.30;;;;;;;6.43;100.00;96409.22;5052396;28;20286;-55
2023/03/25 04:44:59;;;;;;;0.93;0.30;;;;;;;6.40;100.00;96406.00;5052014;28;20205;-55
2023/03/25 04:47:27;;;;;;;0.47;0.37;;;;;;;6.47;100.00;96402.75;5055008;28;20308;-56
2023/03/25 04:49:53;;;;;;;0.57;0.30;;;;;;;6.39;100.00;96401.69;5053512;28;20207;-56
2023/03/25 04:52:20;;;;;;;0.30;0.30;;;;;;;6.35;100.00;96400.28;5053342;28;20671;-56
2023/03/25 04:54:46;;;;;;;0.83;0.30;;;;;;;6.42;100.00;96401.44;5052293;28;20203;-56
2023/03/25 04:57:14;;;;;;;1.23;0.33;;;;;;;6.34;100.00;96409.13;5051837;28;20290;-55
2023/03/25 04:59:40;;;;;;;0.23;0.23;;;;;;;6.37;100.00;96409.72;5052268;28;20199;-54
2023/03/25 05:02:12;;;;;;;0.67;0.40;;;;;;;6.37;100.00;96403.63;5051197;28;20199;-55
2023/03/25 05:04:41;;;;;;;0.20;0.20;;;;;;;6.33;100.00;96402.19;5051903;28;20191;-56
2023/03/25 05:07:08;;;;;;;0.63;0.37;;;;;;;6.35;100.00;96405.53;5050257;28;20207;-55
2023/03/25 05:09:35;;;;;;;0.20;0.20;;;;;;;6.39;100.00;96406.94;5051923;28;20206;-55
2023/03/25 05:12:01;;;;;;;0.30;0.20;;;;;;;6.42;100.00;96406.69;5051069;28;20238;-56
2023/03/25 05:14:28;;;;;;;1.77;0.33;;;;;;;6.49;100.00;96407.88;5051374;28;20214;-56
2023/03/25 05:16:56;;;;;;;0.63;0.30;;;;;;;6.44;100.00;96410.06;5050611;28;20195;-56
2023/03/25 05:19:22;;;;;;;0.27;0.27;;;;;;;6.48;100.00;96422.00;5051282;28;20199;-55
2023/03/25 05:21:55;;;;;;;0.60;0.30;;;;;;;6.55;100.00;96431.03;5049924;28;20214;-55
2023/03/25 05:24:21;;;;;;;2.00;0.53;;;;;;;6.58;100.00;96433.41;5050672;28;20697;-55
2023/03/25 05:26:49;;;;;;;0.50;0.20;;;;;;;6.59;100.00;96445.56;5050729;28;20218;-56
2023/03/25 05:29:16;;;;;;;0.33;0.30;;;;;;;6.58;100.00;96432.56;5051155;28;20211;-56
2023/03/25 05:31:44;;;;;;;0.27;0.20;;;;;;;6.54;100.00;96421.47;5050735;28;20215;-55
2023/03/25 05:34:13;;;;;;;0.30;0.30;;;;;;;6.53;100.00;96424.22;5051173;28;20206;-57
2023/03/25 05:36:40;;;;;;;0.33;0.30;;;;;;;6.58;100.00;96420.28;5049153;28;20272;-56
2023/03/25 05:39:10;;;;;;;0.70;0.40;;;;;;;6.62;100.00;96413.81;5051315;28;20284;-56
2023/03/25 05:41:38;;;;;;;0.20;0.13;;;;;;;6.68;100.00;96413.31;5051250;28;20227;-56
2023/03/25 05:44:05;;;;;;;0.20;0.20;;;;;;;6.73;100.00;96415.59;5051370;28;20269;-56
2023/03/25 05:46:32;;;;;;;0.73;0.20;;;;;;;6.73;100.00;96405.06;5050451;28;20243;-55
2023/03/25 05:48:59;;;;;;;0.20;0.20;;;;;;;6.84;100.00;96418.97;5050750;28;20550;-56
2023/03/25 05:51:32;;;;;;;0.60;0.20;;;;;;;6.88;100.00;96409.88;5050234;28;20300;-56
2023/03/25 05:54:00;;;;;;;0.57;0.20;;;;;;;6.93;100.00;96418.25;5051059;28;20195;-55
2023/03/25 05:56:28;;;;;;;0.63;0.47;;;;;;;6.95;100.00;96411.06;5050746;28;20250;-55
2023/03/25 05:58:55;;;;;;;0.97;0.30;;;;;;;6.99;100.00;96417.72;5050950;28;20199;-56
2023/03/25 06:01:23;;;;;;;0.10;0.10;;;;;;;7.02;100.00;96414.00;5050800;28;20191;-56
2023/03/25 06:03:50;;;;;;;0.70;0.40;;;;;;;7.06;100.00;96404.06;5050624;28;20195;-56
2023/03/25 06:06:18;;;;;;;0.73;0.27;;;;;;;7.11;100.00;96415.88;5050657;28;20233;-55
2023/03/25 06:08:48;;;;;;;0.43;0.30;;;;;;;7.12;100.00;96422.78;5050717;28;20675;-55
2023/03/25 06:11:15;;;;;;;1.47;0.50;;;;;;;7.17;100.00;96430.31;5050553;28;20578;-56
2023/03/25 06:13:48;;;;;;;0.60;0.30;;;;;;;7.21;100.00;96427.31;5050499;28;20216;-55
2023/03/25 06:16:17;;;;;;;0.30;0.30;;;;;;;7.23;100.00;96425.38;5050258;28;20673;-55
2023/03/25 06:18:44;;;;;;;0.20;0.20;;;;;;;7.16;100.00;96426.00;5050501;28;20218;-56
2023/03/25 06:21:11;;;;;;;1.73;0.50;;;;;;;7.26;100.00;96430.38;5053611;28;20206;-55
2023/03/25 06:23:39;;;;;;;0.30;0.30;;;;;;;7.29;100.00;96418.78;5060197;28;20249;-55
2023/03/25 06:26:07;;;;;;;0.37;0.37;;;;;;;7.28;100.00;96414.47;5056604;28;20203;-56
2023/03/25 06:28:34;;;;;;;2.10;1.80;;;;;;;7.37;100.00;96413.69;5050710;28;20199;-56
2023/03/25 06:31:05;;;;;;;2.27;0.50;;;;;;;7.47;100.00;96417.22;5054315;28;20215;-56
2023/03/25 06:33:32;;;;;;;0.53;0.53;;;;;;;7.47;100.00;96418.03;5054259;28;20214;-56
2023/03/25 06:35:58;;;;;;;1.23;0.40;;;;;;;7.51;100.00;96422.09;5055551;28;20211;-55
2023/03/25 06:38:25;;;;;;;0.60;0.47;;;;;;;7.53;100.00;96421.97;5054669;28;20218;-56
2023/03/25 06:40:53;;;;;;;0.67;0.60;;;;;;;7.50;100.00;96419.59;5057735;28;20207;-56
2023/03/25 06:43:20;;;;;;;1.67;0.90;;;;;;;7.53;100.00;96424.59;5063578;28;20222;-56
2023/03/25 06:45:50;;;;;;;0.63;0.40;;;;;;;7.53;100.00;96411.44;5064238;28;20211;-56
2023/03/25 06:48:18;;;;;;;1.23;0.80;;;;;;;7.54;100.00;96431.53;5054475;28;20277;-57
2023/03/25 06:50:45;;;;;;;0.77;0.57;;;;;;;7.55;100.00;96433.19;5053633;28;20226;-56
2023/03/25 06:53:12;;;;;;;0.43;0.37;;;;;;;7.51;100.00;96424.72;5054248;28;20230;-56
2023/03/25 06:55:40;;;;;;;0.90;0.50;;;;;;;7.60;100.00;96412.59;5054000;28;20211;-56
2023/03/25 06:58:06;;;;;;;2.27;0.63;;;;;;;7.82;100.00;96414.22;5057530;28;20213;-57
2023/03/25 07:00:33;;;;;;;1.33;0.70;;;;;;;7.95;100.00;96417.47;5074905;28;20191;-57
2023/03/25 07:03:00;;;;;;;0.97;0.80;;;;;;;8.08;100.00;96409.34;5076748;28;20203;-56
2023/03/25 07:05:28;;;;;;;2.57;0.90;;;;;;;8.24;100.00;96412.31;5059738;28;20521;-56
2023/03/25 07:07:55;;;;;;;0.80;0.57;;;;;;;8.22;100.00;96409.78;5053900;28;20214;-56
2023/03/25 07:10:21;;;;;;;2.50;0.60;;;;;;;8.23;100.00;96408.81;5053534;28;20848;-56
2023/03/25 07:12:49;;;;;;;1.73;0.43;;;;;;;8.31;100.00;96413.47;5053416;28;20225;-55
2023/03/25 07:15:15;;;;;;;1.60;0.80;;;;;;;8.38;100.00;96420.69;5052366;28;20199;-56
2023/03/25 07:17:42;;;;;;;2.93;1.40;;;;;;;8.48;100.00;96420.72;5053683;28;20223;-56
2023/03/25 07:20:10;;;;;;;1.30;0.70;;;;;;;8.50;100.00;96408.25;5053202;28;20210;-56
2023/03/25 07:22:38;;;;;;;0.63;0.50;;;;;;;8.46;100.00;96422.66;5053576;28;20203;-56
2023/03/25 07:25:05;;;;;;;0.70;0.70;;;;;;;8.42;100.00;96431.81;5052897;28;20210;-55
2023/03/25 07:27:31;;;;;;;0.87;0.80;;;;;;;8.47;100.00;96422.50;5053608;28;20200;-55
2023/03/25 07:29:58;;;;;;;1.23;0.70;;;;;;;8.46;100.00;96426.13;5053092;28;20211;-55
2023/03/25 07:32:24;;;;;;;1.03;0.60;;;;;;;8.43;100.00;96428.22;5053241;28;20230;-56
2023/03/25 07:34:53;;;;;;;1.63;0.87;;;;;;;8.39;100.00;96418.91;5053292;28;20218;-56
2023/03/25 07:37:20;;;;;;;0.70;0.50;;;;;;;8.42;100.00;96426.53;5052891;28;20206;-56
2023/03/25 07:39:48;;;;;;;1.90;0.80;;;;;;;8.44;100.00;96414.88;5052652;28;20207;-56
2023/03/25 07:42:14;;;;;;;1.40;0.70;;;;;;;8.44;100.00;96419.31;5053188;28;20203;-55
2023/03/25 07:44:41;;;;;;;1.83;0.90;;;;;;;8.36;100.00;96424.44;5053091;28;20656;-56
2023/03/25 07:47:07;;;;;;;2.73;0.90;;;;;;;8.30;100.00;96419.69;5055890;28;20673;-56
2023/03/25 07:49:34;;;;;;;2.27;0.90;;;;;;;8.37;100.00;96429.56;5066474;28;20218;-56
2023/03/25 07:52:01;;;;;;;0.70;0.60;;;;;;;8.45;100.00;96421.81;5055938;28;20223;-56
2023/03/25 07:54:28;;;;;;;2.43;0.70;;;;;;;8.51;100.00;96425.72;5052910;28;20203;-55
2023/03/25 07:56:57;;;;;;;2.30;0.83;;;;;;;8.60;100.00;96424.91;5052937;28;20215;-56
2023/03/25 07:59:24;;;;;;;1.47;0.80;;;;;;;8.63;100.00;96421.16;5052629;28;20270;-56
2023/03/25 08:01:51;;;;;;;1.67;0.90;;;;;;;8.60;100.00;96427.53;5052456;28;21496;-56
2023/03/25 08:04:17;;;;;;;1.13;0.67;;;;;;;8.63;100.00;96429.91;5052428;28;20646;-55
2023/03/25 08:06:44;;;;;;;0.90;0.70;;;;;;;8.68;100.00;96426.88;5052290;28;20523;-56
2023/03/25 08:09:11;;;;;;;1.50;0.90;;;;;;;8.68;100.00;96435.59;5051244;28;20207;-56
2023/03/25 08:11:37;;;;;;;2.47;1.10;;;;;;;8.72;100.00;96422.97;5052310;28;20231;-56
2023/03/25 08:14:05;;;;;;;0.93;0.70;;;;;;;8.72;100.00;96413.25;5052552;28;20199;-56
2023/03/25 08:16:32;;;;;;;2.53;1.00;;;;;;;8.80;100.00;96420.47;5052681;28;20217;-56
2023/03/25 08:18:58;;;;;;;2.13;0.90;;;;;;;8.85;100.00;96416.47;5052482;28;20203;-55
2023/03/25 08:21:26;;;;;;;2.87;0.90;;;;;;;8.84;100.00;96421.88;5051575;28;20553;-56
2023/03/25 08:23:57;;;;;;;3.70;0.90;;;;;;;8.88;100.00;96418.00;5052289;28;20238;-56
2023/03/25 08:26:23;;;;;;;2.20;0.80;;;;;;;8.81;100.00;96423.00;5052419;28;20203;-56
2023/03/25 08:28:50;;;;;;;2.17;0.77;;;;;;;8.87;100.00;96422.44;5052365;28;20203;-55
2023/03/25 08:31:19;;;;;;;1.10;0.70;;;;;;;9.00;100.00;96428.25;5052207;28;20203;-56
2023/03/25 08:33:46;;;;;;;1.73;0.77;;;;;;;9.04;100.00;96412.16;5052172;28;20696;-55
2023/03/25 08:36:13;;;;;;;2.63;0.80;;;;;;;9.09;100.00;96415.22;5051788;28;20667;-56
2023/03/25 08:38:40;;;;;;;1.53;1.10;;;;;;;9.09;100.00;96420.50;5052436;28;20211;-55
2023/03/25 08:41:07;;;;;;;1.40;0.80;;;;;;;9.10;100.00;96423.00;5051782;28;20253;-56
2023/03/25 08:43:33;;;;;;;2.33;1.40;;;;;;;9.06;100.00;96416.34;5051875;28;20195;-55
2023/03/25 08:46:00;;;;;;;0.67;0.60;;;;;;;9.18;100.00;96417.00;5050993;28;20253;-57
2023/03/25 08:48:27;;;;;;;2.30;0.90;;;;;;;9.24;100.00;96414.66;5051784;28;20207;-57
2023/03/25 08:50:54;;;;;;;1.77;1.03;;;;;;;9.21;100.00;96408.84;5051143;28;20207;-56
2023/03/25 08:53:20;;;;;;;6.13;5.40;;;;;;;9.25;100.00;96410.19;5051480;28;20226;-56
2023/03/25 08:55:51;;;;;;;1.50;0.97;;;;;;;9.22;100.00;96407.84;5051948;28;20539;-56
2023/03/25 08:58:18;;;;;;;0.80;0.80;;;;;;;9.24;100.00;96413.81;5051713;28;20207;-56
2023/03/25 09:00:45;;;;;;;1.80;1.27;;;;;;;9.29;100.00;96406.31;5052663;28;20272;-55
2023/03/25 09:03:12;;;;;;;1.10;0.63;;;;;;;9.31;100.00;96407.03;5053719;28;20203;-55
2023/03/25 09:05:41;;;;;;;2.37;0.93;;;;;;;9.45;100.00;96390.75;5057071;28;20209;-56
2023/03/25 09:08:08;;;;;;;1.93;0.60;;;;;;;9.33;100.00;96400.63;5052905;28;20203;-56
2023/03/25 09:10:34;;;;;;;2.83;0.97;;;;;;;9.31;100.00;96409.66;5052335;28;20214;-56
2023/03/25 09:13:01;;;;;;;2.70;0.93;;;;;;;9.29;100.00;96401.03;5071505;28;20226;-56
2023/03/25 09:15:27;;;;;;;1.57;1.03;;;;;;;9.30;100.00;96394.78;5071492;28;20230;-57
2023/03/25 09:17:54;;;;;;;1.77;0.90;;;;;;;9.29;100.00;96393.13;5071475;28;20199;-56
2023/03/25 09:20:20;;;;;;;1.37;0.97;;;;;;;9.18;100.00;96406.44;5071023;28;20237;-55
2023/03/25 09:22:48;;;;;;;0.90;0.73;;;;;;;9.33;100.00;96408.53;5057885;28;20200;-56
2023/03/25 09:25:15;;;;;;;3.67;1.17;;;;;;;9.43;100.00;96397.94;5052255;28;20213;-55
2023/03/25 09:27:41;;;;;;;1.77;0.87;;;;;;;9.58;100.00;96396.53;5051419;28;20248;-56
2023/03/25 09:30:09;;;;;;;3.17;1.00;;;;;;;9.61;100.00;96404.16;5051231;28;20210;-56
2023/03/25 09:32:36;;;;;;;3.10;1.03;;;;;;;9.78;99.86;96390.22;5050997;28;20231;-56
2023/03/25 09:35:03;;;;;;;3.27;1.20;;;;;;;9.79;99.94;96399.81;5051441;28;20222;-55
2023/03/25 09:37:30;;;;;;;2.77;1.73;;;;;;;9.89;100.00;96397.97;5050730;28;20539;-56
2023/03/25 09:39:58;;;;;;;2.07;1.10;;;;;;;9.97;99.46;96408.66;5050813;28;20832;-57
2023/03/25 09:42:34;;;;;;;2.20;1.13;;;;;;;9.93;99.96;96404.63;5051233;28;20206;-55
2023/03/25 09:45:07;;;;;;;2.90;1.00;;;;;;;10.00;100.00;96396.94;5050964;28;20201;-56
2023/03/25 09:47:34;;;;;;;1.83;0.93;;;;;;;10.02;100.00;96404.75;5050590;28;20321;-55
2023/03/25 09:50:05;;;;;;;2.77;1.17;;;;;;;10.02;99.62;96408.22;5050599;28;20210;-56
2023/03/25 09:52:37;;;;;;;2.13;1.10;;;;;;;9.90;99.93;96409.38;5050701;28;20567;-56
2023/03/25 09:55:09;;;;;;;2.70;1.13;;;;;;;10.04;98.25;96416.81;5050824;28;20202;-55
2023/03/25 09:57:41;;;;;;;3.03;1.13;;;;;;;9.88;100.00;96422.69;5050742;28;20210;-56
2023/03/25 10:00:17;;;;;;;1.23;0.80;;;;;;;9.87;96.70;96422.88;5052156;28;20286;-56
2023/03/25 10:02:46;;;;;;;1.13;0.77;;;;;;;9.79;97.69;96447.34;5051295;28;20197;-56
2023/03/25 10:05:21;;;;;;;2.53;0.93;;;;;;;9.79;97.37;96431.50;5054799;28;20585;-56
2023/03/25 10:07:57;;;;;;;2.13;0.97;;;;;;;9.87;98.06;96423.69;5055262;28;20215;-56
2023/03/25 10:10:28;;;;;;;0.87;0.63;;;;;;;10.25;95.52;96427.19;5055067;28;20301;-56
2023/03/25 10:13:00;;;;;;;1.37;0.60;;;;;;;10.66;93.06;96423.22;5054517;28;20211;-56
2023/03/25 10:15:31;;;;;;;0.93;0.57;;;;;;;10.96;95.08;96412.28;5054644;28;20214;-56
2023/03/25 10:18:17;;;;;;;1.60;0.70;;;;;;;11.16;93.44;96418.25;5054918;28;20321;-56
2023/03/25 10:20:48;;;;;;;1.43;0.60;;;;;;;11.11;88.69;96420.53;5051818;28;20198;-56
2023/03/25 10:23:21;;;;;;;1.03;0.60;;;;;;;10.99;93.78;96407.50;5054761;28;20191;-56
2023/03/25 10:25:53;;;;;;;0.70;0.50;;;;;;;10.99;90.42;96427.84;5055192;28;20203;-56
2023/03/25 10:28:24;;;;;;;0.50;0.50;;;;;;;10.91;92.96;96441.81;5054272;28;20207;-56
2023/03/25 10:30:52;;;;;;;1.43;0.50;;;;;;;10.86;90.54;96435.31;5054632;28;20203;-56
2023/03/25 10:33:26;;;;;;;0.50;0.50;;;;;;;10.70;92.10;96438.63;5054672;28;20231;-56
2023/03/25 10:35:53;;;;;;;0.83;0.60;;;;;;;10.57;94.39;96451.38;5054352;28;20213;-56
2023/03/25 10:38:23;;;;;;;1.27;0.83;;;;;;;10.53;92.84;96441.22;5054479;28;20236;-56
2023/03/25 10:40:52;;;;;;;2.17;0.90;;;;;;;10.42;94.30;96435.16;5054616;28;20203;-56
2023/03/25 10:43:23;;;;;;;1.83;0.70;;;;;;;10.52;95.35;96444.88;5054503;28;20239;-56
2023/03/25 10:45:52;;;;;;;1.23;0.67;;;;;;;10.57;97.14;96434.66;5054417;28;20191;-56
2023/03/25 10:48:22;;;;;;;0.80;0.57;;;;;;;10.74;94.17;96440.00;5054170;28;20636;-56
2023/03/25 10:50:52;;;;;;;1.03;0.60;;;;;;;10.81;92.97;96441.06;5053872;28;20207;-56
2023/03/25 10:53:21;;;;;;;1.30;0.80;;;;;;;10.82;92.26;96416.28;5054052;28;20314;-56
2023/03/25 10:55:52;;;;;;;0.60;0.50;;;;;;;10.87;94.02;96421.97;5054232;28;20213;-56
2023/03/25 10:58:20;;;;;;;0.90;0.73;;;;;;;10.96;93.86;96413.13;5054847;28;20276;-55
2023/03/25 11:00:47;;;;;;;1.83;0.73;;;;;;;11.16;91.97;96419.06;5054099;28;20211;-56
2023/03/25 11:03:16;;;;;;;1.50;0.90;;;;;;;11.17;90.52;96430.50;5053771;28;20210;-56
2023/03/25 11:05:44;;;;;;;1.40;0.90;;;;;;;11.22;90.10;96404.41;5053468;28;20286;-56
2023/03/25 11:08:11;;;;;;;0.67;0.60;;;;;;;11.22;88.35;96417.66;5053738;28;20199;-57
2023/03/25 11:10:39;;;;;;;1.10;0.70;;;;;;;11.30;87.30;96426.47;5052917;28;20205;-56
2023/03/25 11:13:13;;;;;;;1.17;0.97;;;;;;;11.22;89.06;96418.47;5053888;28;20230;-56
2023/03/25 11:15:43;;;;;;;0.80;0.67;;;;;;;11.39;86.42;96419.44;5051456;28;20195;-56
2023/03/25 11:18:14;;;;;;;1.40;0.70;;;;;;;11.33;84.65;96412.13;5053942;28;20666;-55
2023/03/25 11:20:46;;;;;;;1.40;0.80;;;;;;;11.35;84.16;96423.38;5053781;28;20195;-56
2023/03/25 11:23:19;;;;;;;1.27;0.57;;;;;;;11.30;84.85;96421.19;5053655;28;20203;-56
2023/03/25 11:25:46;;;;;;;0.67;0.63;;;;;;;11.36;85.99;96420.59;5061991;28;20611;-56
2023/03/25 11:28:26;;;;;;;1.33;0.80;;;;;;;11.80;84.19;96424.06;5073792;28;20353;-56
2023/03/25 11:31:14;;;;;;;0.60;0.60;;;;;;;11.78;82.83;96415.47;5076372;28;20183;-56
2023/03/25 11:33:43;;;;;;;1.40;0.60;;;;;;;11.79;80.18;96411.84;5061788;28;20211;-56
2023/03/25 11:36:12;;;;;;;1.40;0.80;;;;;;;11.91;77.72;96401.78;5054468;28;20207;-56
2023/03/25 11:38:39;;;;;;;0.90;0.70;;;;;;;11.91;80.77;96410.56;5054271;28;20257;-56
2023/03/25 11:41:06;;;;;;;1.10;0.80;;;;;;;11.75;80.13;96418.44;5053035;28;20614;-56
2023/03/25 11:43:36;;;;;;;1.67;1.10;;;;;;;11.65;82.64;96408.88;5053642;28;20218;-56
2023/03/25 11:46:09;;;;;;;0.70;0.70;;;;;;;11.83;79.38;96407.84;5054116;28;20214;-56